sensor_id;sensor_type;location;lat;lon;timestamp;P1;durP1;ratioP1;P2;durP2;ratioP2
12916;SDS011;6526;54.312;13.092;2023-04-24T00:00:28;5.43;;;3.63;;
12916;SDS011;6526;54.312;13.092;2023-04-24T00:02:55;2.40;;;2.13;;
12916;SDS011;6526;54.312;13.092;2023-04-24T00:05:21;7.50;;;4.17;;
12916;SDS011;6526;54.312;13.092;2023-04-24T00:07:48;3.03;;;2.73;;
12916;SDS011;6526;54.312;13.092;2023-04-24T00:10:17;8.10;;;3.87;;
12916;SDS011;6526;54.312;13.092;2023-04-24T00:12:43;7.33;;;4.30;;
12916;SDS011;6526;54.312;13.092;2023-04-24T00:15:09;0.20;;;0.20;;
12916;SDS011;6526;54.312;13.092;2023-04-24T00:17:36;2.90;;;2.13;;
12916;SDS011;6526;54.312;13.092;2023-04-24T00:20:02;3.30;;;2.93;;
12916;SDS011;6526;54.312;13.092;2023-04-24T00:22:29;5.50;;;3.43;;
12916;SDS011;6526;54.312;13.092;2023-04-24T00:24:56;3.90;;;2.80;;
12916;SDS011;6526;54.312;13.092;2023-04-24T00:27:22;5.00;;;3.83;;
12916;SDS011;6526;54.312;13.092;2023-04-24T00:29:49;0.77;;;0.77;;
12916;SDS011;6526;54.312;13.092;2023-04-24T00:32:15;2.20;;;1.90;;
12916;SDS011;6526;54.312;13.092;2023-04-24T00:34:42;5.37;;;3.00;;
12916;SDS011;6526;54.312;13.092;2023-04-24T00:37:08;2.93;;;1.90;;
12916;SDS011;6526;54.312;13.092;2023-04-24T00:39:34;0.60;;;0.60;;
12916;SDS011;6526;54.312;13.092;2023-04-24T00:42:00;8.00;;;2.07;;
12916;SDS011;6526;54.312;13.092;2023-04-24T00:44:26;1.67;;;1.57;;
12916;SDS011;6526;54.312;13.092;2023-04-24T00:46:53;9.87;;;4.07;;
12916;SDS011;6526;54.312;13.092;2023-04-24T00:49:23;2.53;;;0.67;;
12916;SDS011;6526;54.312;13.092;2023-04-24T00:51:49;1.40;;;1.30;;
12916;SDS011;6526;54.312;13.092;2023-04-24T00:54:16;0.93;;;0.93;;
12916;SDS011;6526;54.312;13.092;2023-04-24T00:56:42;2.70;;;2.50;;
12916;SDS011;6526;54.312;13.092;2023-04-24T00:59:10;4.83;;;2.30;;
12916;SDS011;6526;54.312;13.092;2023-04-24T01:01:37;3.00;;;1.60;;
12916;SDS011;6526;54.312;13.092;2023-04-24T01:04:06;3.53;;;1.93;;
12916;SDS011;6526;54.312;13.092;2023-04-24T01:06:35;2.70;;;2.50;;
12916;SDS011;6526;54.312;13.092;2023-04-24T01:09:05;5.57;;;2.30;;
12916;SDS011;6526;54.312;13.092;2023-04-24T01:11:35;1.47;;;1.03;;
12916;SDS011;6526;54.312;13.092;2023-04-24T01:14:01;2.47;;;2.27;;
12916;SDS011;6526;54.312;13.092;2023-04-24T01:16:28;1.90;;;1.80;;
12916;SDS011;6526;54.312;13.092;2023-04-24T01:18:54;0.40;;;0.40;;
12916;SDS011;6526;54.312;13.092;2023-04-24T01:21:20;2.87;;;2.50;;
12916;SDS011;6526;54.312;13.092;2023-04-24T01:23:48;2.60;;;0.60;;
12916;SDS011;6526;54.312;13.092;2023-04-24T01:26:16;5.23;;;3.07;;
12916;SDS011;6526;54.312;13.092;2023-04-24T01:28:44;4.27;;;2.37;;
12916;SDS011;6526;54.312;13.092;2023-04-24T01:31:11;2.00;;;1.03;;
12916;SDS011;6526;54.312;13.092;2023-04-24T01:33:37;3.40;;;2.60;;
12916;SDS011;6526;54.312;13.092;2023-04-24T01:36:03;0.73;;;0.73;;
12916;SDS011;6526;54.312;13.092;2023-04-24T01:38:29;2.07;;;1.87;;
12916;SDS011;6526;54.312;13.092;2023-04-24T01:40:56;5.40;;;3.63;;
12916;SDS011;6526;54.312;13.092;2023-04-24T01:43:22;3.10;;;1.20;;
12916;SDS011;6526;54.312;13.092;2023-04-24T01:45:48;0.93;;;0.73;;
12916;SDS011;6526;54.312;13.092;2023-04-24T01:48:14;1.73;;;1.63;;
12916;SDS011;6526;54.312;13.092;2023-04-24T01:50:40;0.77;;;0.77;;
12916;SDS011;6526;54.312;13.092;2023-04-24T01:53:06;6.07;;;3.23;;
12916;SDS011;6526;54.312;13.092;2023-04-24T01:55:32;2.50;;;2.30;;
12916;SDS011;6526;54.312;13.092;2023-04-24T01:57:58;1.30;;;1.10;;
12916;SDS011;6526;54.312;13.092;2023-04-24T02:00:26;4.27;;;3.47;;
12916;SDS011;6526;54.312;13.092;2023-04-24T02:02:52;2.43;;;1.73;;
12916;SDS011;6526;54.312;13.092;2023-04-24T02:05:18;4.30;;;3.03;;
12916;SDS011;6526;54.312;13.092;2023-04-24T02:07:44;1.33;;;1.23;;
12916;SDS011;6526;54.312;13.092;2023-04-24T02:10:10;5.40;;;3.87;;
12916;SDS011;6526;54.312;13.092;2023-04-24T02:12:37;1.03;;;1.00;;
12916;SDS011;6526;54.312;13.092;2023-04-24T02:15:03;4.53;;;2.67;;
12916;SDS011;6526;54.312;13.092;2023-04-24T02:17:30;8.63;;;4.53;;
12916;SDS011;6526;54.312;13.092;2023-04-24T02:19:56;3.83;;;3.47;;
12916;SDS011;6526;54.312;13.092;2023-04-24T02:22:22;4.73;;;4.00;;
12916;SDS011;6526;54.312;13.092;2023-04-24T02:24:48;4.33;;;2.53;;
12916;SDS011;6526;54.312;13.092;2023-04-24T02:27:14;1.93;;;1.80;;
12916;SDS011;6526;54.312;13.092;2023-04-24T02:29:40;7.53;;;5.17;;
12916;SDS011;6526;54.312;13.092;2023-04-24T02:32:06;10.20;;;4.50;;
12916;SDS011;6526;54.312;13.092;2023-04-24T02:34:36;4.57;;;2.70;;
12916;SDS011;6526;54.312;13.092;2023-04-24T02:37:02;1.63;;;1.37;;
12916;SDS011;6526;54.312;13.092;2023-04-24T02:39:28;7.37;;;4.73;;
12916;SDS011;6526;54.312;13.092;2023-04-24T02:41:54;4.40;;;2.20;;
12916;SDS011;6526;54.312;13.092;2023-04-24T02:44:20;2.07;;;1.60;;
12916;SDS011;6526;54.312;13.092;2023-04-24T02:46:47;6.23;;;4.20;;
12916;SDS011;6526;54.312;13.092;2023-04-24T02:49:13;7.80;;;5.13;;
12916;SDS011;6526;54.312;13.092;2023-04-24T02:51:40;4.63;;;2.80;;
12916;SDS011;6526;54.312;13.092;2023-04-24T02:54:07;11.00;;;6.37;;
12916;SDS011;6526;54.312;13.092;2023-04-24T02:56:34;2.30;;;2.10;;
12916;SDS011;6526;54.312;13.092;2023-04-24T02:59:00;7.13;;;2.60;;
12916;SDS011;6526;54.312;13.092;2023-04-24T03:01:26;5.17;;;3.23;;
12916;SDS011;6526;54.312;13.092;2023-04-24T03:03:52;9.97;;;5.57;;
12916;SDS011;6526;54.312;13.092;2023-04-24T03:06:18;8.07;;;5.33;;
12916;SDS011;6526;54.312;13.092;2023-04-24T03:08:45;7.87;;;6.00;;
12916;SDS011;6526;54.312;13.092;2023-04-24T03:11:11;5.53;;;3.60;;
12916;SDS011;6526;54.312;13.092;2023-04-24T03:13:37;7.33;;;3.97;;
12916;SDS011;6526;54.312;13.092;2023-04-24T03:16:03;6.13;;;3.80;;
12916;SDS011;6526;54.312;13.092;2023-04-24T03:18:30;6.60;;;4.47;;
12916;SDS011;6526;54.312;13.092;2023-04-24T03:20:56;11.57;;;6.17;;
12916;SDS011;6526;54.312;13.092;2023-04-24T03:23:22;6.50;;;3.63;;
12916;SDS011;6526;54.312;13.092;2023-04-24T03:25:48;8.47;;;4.53;;
12916;SDS011;6526;54.312;13.092;2023-04-24T03:28:14;3.10;;;2.63;;
12916;SDS011;6526;54.312;13.092;2023-04-24T03:30:40;8.43;;;4.83;;
12916;SDS011;6526;54.312;13.092;2023-04-24T03:33:06;8.23;;;5.20;;
12916;SDS011;6526;54.312;13.092;2023-04-24T03:35:32;7.83;;;5.33;;
12916;SDS011;6526;54.312;13.092;2023-04-24T03:37:59;8.47;;;5.33;;
12916;SDS011;6526;54.312;13.092;2023-04-24T03:40:25;6.80;;;4.53;;
12916;SDS011;6526;54.312;13.092;2023-04-24T03:42:51;4.17;;;3.70;;
12916;SDS011;6526;54.312;13.092;2023-04-24T03:45:17;15.30;;;5.53;;
12916;SDS011;6526;54.312;13.092;2023-04-24T03:47:43;11.03;;;3.50;;
12916;SDS011;6526;54.312;13.092;2023-04-24T03:50:09;6.93;;;4.70;;
12916;SDS011;6526;54.312;13.092;2023-04-24T03:52:35;4.17;;;3.00;;
12916;SDS011;6526;54.312;13.092;2023-04-24T03:55:01;3.03;;;1.93;;
12916;SDS011;6526;54.312;13.092;2023-04-24T03:57:27;2.17;;;1.77;;
12916;SDS011;6526;54.312;13.092;2023-04-24T03:59:53;3.60;;;2.00;;
12916;SDS011;6526;54.312;13.092;2023-04-24T04:02:20;4.17;;;3.37;;
12916;SDS011;6526;54.312;13.092;2023-04-24T04:04:47;9.10;;;5.10;;
12916;SDS011;6526;54.312;13.092;2023-04-24T04:07:13;4.20;;;3.23;;
12916;SDS011;6526;54.312;13.092;2023-04-24T04:09:39;4.80;;;3.17;;
12916;SDS011;6526;54.312;13.092;2023-04-24T04:12:05;7.80;;;4.97;;
12916;SDS011;6526;54.312;13.092;2023-04-24T04:14:31;11.77;;;7.43;;
12916;SDS011;6526;54.312;13.092;2023-04-24T04:16:57;10.83;;;6.47;;
12916;SDS011;6526;54.312;13.092;2023-04-24T04:19:23;10.87;;;6.73;;
12916;SDS011;6526;54.312;13.092;2023-04-24T04:21:49;2.07;;;1.97;;
12916;SDS011;6526;54.312;13.092;2023-04-24T04:24:18;7.53;;;5.97;;
12916;SDS011;6526;54.312;13.092;2023-04-24T04:26:45;6.00;;;4.13;;
12916;SDS011;6526;54.312;13.092;2023-04-24T04:29:12;7.77;;;5.93;;
12916;SDS011;6526;54.312;13.092;2023-04-24T04:31:38;5.67;;;2.77;;
12916;SDS011;6526;54.312;13.092;2023-04-24T04:34:05;1.70;;;1.53;;
12916;SDS011;6526;54.312;13.092;2023-04-24T04:36:32;0.57;;;0.57;;
12916;SDS011;6526;54.312;13.092;2023-04-24T04:39:01;5.97;;;4.27;;
12916;SDS011;6526;54.312;13.092;2023-04-24T04:41:28;2.93;;;2.63;;
12916;SDS011;6526;54.312;13.092;2023-04-24T04:43:55;2.17;;;1.50;;
12916;SDS011;6526;54.312;13.092;2023-04-24T04:46:23;5.27;;;3.20;;
12916;SDS011;6526;54.312;13.092;2023-04-24T04:48:51;7.10;;;6.27;;
12916;SDS011;6526;54.312;13.092;2023-04-24T04:51:17;16.47;;;8.90;;
12916;SDS011;6526;54.312;13.092;2023-04-24T04:53:43;15.97;;;10.20;;
12916;SDS011;6526;54.312;13.092;2023-04-24T04:56:10;5.13;;;4.17;;
12916;SDS011;6526;54.312;13.092;2023-04-24T04:58:36;7.20;;;3.63;;
12916;SDS011;6526;54.312;13.092;2023-04-24T05:01:02;1.17;;;1.07;;
12916;SDS011;6526;54.312;13.092;2023-04-24T05:03:28;4.13;;;2.67;;
12916;SDS011;6526;54.312;13.092;2023-04-24T05:05:54;5.73;;;4.47;;
12916;SDS011;6526;54.312;13.092;2023-04-24T05:08:20;4.80;;;4.40;;
12916;SDS011;6526;54.312;13.092;2023-04-24T05:10:46;11.17;;;6.60;;
12916;SDS011;6526;54.312;13.092;2023-04-24T05:13:12;9.83;;;3.23;;
12916;SDS011;6526;54.312;13.092;2023-04-24T05:15:38;6.57;;;4.03;;
12916;SDS011;6526;54.312;13.092;2023-04-24T05:18:05;5.40;;;3.90;;
12916;SDS011;6526;54.312;13.092;2023-04-24T05:20:31;8.20;;;3.93;;
12916;SDS011;6526;54.312;13.092;2023-04-24T05:22:57;8.37;;;2.57;;
12916;SDS011;6526;54.312;13.092;2023-04-24T05:25:23;6.70;;;4.63;;
12916;SDS011;6526;54.312;13.092;2023-04-24T05:27:49;0.10;;;0.10;;
12916;SDS011;6526;54.312;13.092;2023-04-24T05:30:15;1.33;;;1.30;;
12916;SDS011;6526;54.312;13.092;2023-04-24T05:32:41;10.03;;;4.27;;
12916;SDS011;6526;54.312;13.092;2023-04-24T05:35:07;2.47;;;2.03;;
12916;SDS011;6526;54.312;13.092;2023-04-24T05:37:33;1.37;;;0.93;;
12916;SDS011;6526;54.312;13.092;2023-04-24T05:39:59;4.73;;;2.27;;
12916;SDS011;6526;54.312;13.092;2023-04-24T05:42:25;10.83;;;1.40;;
12916;SDS011;6526;54.312;13.092;2023-04-24T05:44:51;3.33;;;2.33;;
12916;SDS011;6526;54.312;13.092;2023-04-24T05:47:18;2.30;;;0.47;;
12916;SDS011;6526;54.312;13.092;2023-04-24T05:49:46;5.33;;;3.20;;
12916;SDS011;6526;54.312;13.092;2023-04-24T05:52:12;0.97;;;0.97;;
12916;SDS011;6526;54.312;13.092;2023-04-24T05:54:38;8.03;;;4.43;;
12916;SDS011;6526;54.312;13.092;2023-04-24T05:57:04;3.53;;;1.30;;
12916;SDS011;6526;54.312;13.092;2023-04-24T05:59:36;5.63;;;3.53;;
12916;SDS011;6526;54.312;13.092;2023-04-24T06:02:03;7.70;;;4.10;;
12916;SDS011;6526;54.312;13.092;2023-04-24T06:04:29;3.97;;;1.93;;
12916;SDS011;6526;54.312;13.092;2023-04-24T06:06:56;5.30;;;3.10;;
12916;SDS011;6526;54.312;13.092;2023-04-24T06:09:22;3.37;;;3.07;;
12916;SDS011;6526;54.312;13.092;2023-04-24T06:11:49;3.10;;;1.97;;
12916;SDS011;6526;54.312;13.092;2023-04-24T06:14:17;1.97;;;1.80;;
12916;SDS011;6526;54.312;13.092;2023-04-24T06:16:44;2.00;;;1.80;;
12916;SDS011;6526;54.312;13.092;2023-04-24T06:19:10;3.53;;;3.03;;
12916;SDS011;6526;54.312;13.092;2023-04-24T06:21:36;4.00;;;3.07;;
12916;SDS011;6526;54.312;13.092;2023-04-24T06:24:02;11.93;;;2.43;;
12916;SDS011;6526;54.312;13.092;2023-04-24T06:26:29;3.73;;;1.30;;
12916;SDS011;6526;54.312;13.092;2023-04-24T06:28:55;2.77;;;1.87;;
12916;SDS011;6526;54.312;13.092;2023-04-24T06:31:23;3.03;;;2.03;;
12916;SDS011;6526;54.312;13.092;2023-04-24T06:33:49;4.27;;;3.27;;
12916;SDS011;6526;54.312;13.092;2023-04-24T06:36:15;4.90;;;2.43;;
12916;SDS011;6526;54.312;13.092;2023-04-24T06:38:41;3.00;;;2.37;;
12916;SDS011;6526;54.312;13.092;2023-04-24T06:41:07;2.87;;;1.47;;
12916;SDS011;6526;54.312;13.092;2023-04-24T06:43:34;4.30;;;3.10;;
12916;SDS011;6526;54.312;13.092;2023-04-24T06:46:00;0.10;;;0.10;;
12916;SDS011;6526;54.312;13.092;2023-04-24T06:48:28;8.23;;;5.83;;
12916;SDS011;6526;54.312;13.092;2023-04-24T06:50:54;0.90;;;0.87;;
12916;SDS011;6526;54.312;13.092;2023-04-24T06:53:20;0.90;;;0.90;;
12916;SDS011;6526;54.312;13.092;2023-04-24T06:55:46;0.77;;;0.77;;
12916;SDS011;6526;54.312;13.092;2023-04-24T06:58:13;0.40;;;0.40;;
12916;SDS011;6526;54.312;13.092;2023-04-24T07:00:40;0.10;;;0.10;;
12916;SDS011;6526;54.312;13.092;2023-04-24T07:03:06;6.87;;;4.83;;
12916;SDS011;6526;54.312;13.092;2023-04-24T07:05:32;10.47;;;4.63;;
12916;SDS011;6526;54.312;13.092;2023-04-24T07:08:03;11.10;;;8.43;;
12916;SDS011;6526;54.312;13.092;2023-04-24T07:10:29;0.40;;;0.40;;
12916;SDS011;6526;54.312;13.092;2023-04-24T07:12:55;0.53;;;0.53;;
12916;SDS011;6526;54.312;13.092;2023-04-24T07:15:21;6.47;;;2.80;;
12916;SDS011;6526;54.312;13.092;2023-04-24T07:17:48;6.90;;;3.83;;
12916;SDS011;6526;54.312;13.092;2023-04-24T07:20:15;1.67;;;1.57;;
12916;SDS011;6526;54.312;13.092;2023-04-24T07:22:41;2.40;;;2.20;;
12916;SDS011;6526;54.312;13.092;2023-04-24T07:25:07;0.63;;;0.50;;
12916;SDS011;6526;54.312;13.092;2023-04-24T07:27:34;5.40;;;4.47;;
12916;SDS011;6526;54.312;13.092;2023-04-24T07:30:01;1.00;;;1.00;;
12916;SDS011;6526;54.312;13.092;2023-04-24T07:32:31;0.77;;;0.73;;
12916;SDS011;6526;54.312;13.092;2023-04-24T07:34:57;4.10;;;2.87;;
12916;SDS011;6526;54.312;13.092;2023-04-24T07:37:23;0.80;;;0.73;;
12916;SDS011;6526;54.312;13.092;2023-04-24T07:39:49;2.63;;;1.63;;
12916;SDS011;6526;54.312;13.092;2023-04-24T07:42:16;3.40;;;1.80;;
12916;SDS011;6526;54.312;13.092;2023-04-24T07:44:42;7.17;;;3.17;;
12916;SDS011;6526;54.312;13.092;2023-04-24T07:47:08;5.53;;;3.63;;
12916;SDS011;6526;54.312;13.092;2023-04-24T07:49:34;1.73;;;0.93;;
12916;SDS011;6526;54.312;13.092;2023-04-24T07:52:01;4.00;;;3.50;;
12916;SDS011;6526;54.312;13.092;2023-04-24T07:54:27;0.10;;;0.10;;
12916;SDS011;6526;54.312;13.092;2023-04-24T07:56:53;2.13;;;1.93;;
12916;SDS011;6526;54.312;13.092;2023-04-24T07:59:20;1.90;;;1.37;;
12916;SDS011;6526;54.312;13.092;2023-04-24T08:01:46;2.30;;;1.60;;
12916;SDS011;6526;54.312;13.092;2023-04-24T08:04:12;12.97;;;2.80;;
12916;SDS011;6526;54.312;13.092;2023-04-24T08:06:38;3.80;;;3.23;;
12916;SDS011;6526;54.312;13.092;2023-04-24T08:09:04;4.50;;;2.20;;
12916;SDS011;6526;54.312;13.092;2023-04-24T08:11:30;2.10;;;1.17;;
12916;SDS011;6526;54.312;13.092;2023-04-24T08:13:56;1.00;;;0.90;;
12916;SDS011;6526;54.312;13.092;2023-04-24T08:16:22;1.77;;;1.33;;
12916;SDS011;6526;54.312;13.092;2023-04-24T08:18:49;3.30;;;1.80;;
12916;SDS011;6526;54.312;13.092;2023-04-24T08:21:15;5.10;;;3.87;;
12916;SDS011;6526;54.312;13.092;2023-04-24T08:23:45;0.30;;;0.30;;
12916;SDS011;6526;54.312;13.092;2023-04-24T08:26:12;0.37;;;0.37;;
12916;SDS011;6526;54.312;13.092;2023-04-24T08:28:38;6.30;;;2.23;;
12916;SDS011;6526;54.312;13.092;2023-04-24T08:31:04;1.30;;;1.03;;
12916;SDS011;6526;54.312;13.092;2023-04-24T08:33:30;1.63;;;1.53;;
12916;SDS011;6526;54.312;13.092;2023-04-24T08:36:00;1.10;;;1.00;;
12916;SDS011;6526;54.312;13.092;2023-04-24T08:38:30;0.67;;;0.67;;
12916;SDS011;6526;54.312;13.092;2023-04-24T08:40:57;1.87;;;1.60;;
12916;SDS011;6526;54.312;13.092;2023-04-24T08:43:24;0.20;;;0.20;;
12916;SDS011;6526;54.312;13.092;2023-04-24T08:45:51;0.53;;;0.53;;
12916;SDS011;6526;54.312;13.092;2023-04-24T08:48:18;2.60;;;2.33;;
12916;SDS011;6526;54.312;13.092;2023-04-24T08:50:44;0.83;;;0.80;;
12916;SDS011;6526;54.312;13.092;2023-04-24T08:53:13;1.23;;;1.13;;
12916;SDS011;6526;54.312;13.092;2023-04-24T08:55:39;1.30;;;1.20;;
12916;SDS011;6526;54.312;13.092;2023-04-24T08:58:08;2.63;;;2.50;;
12916;SDS011;6526;54.312;13.092;2023-04-24T09:00:34;0.40;;;0.40;;
12916;SDS011;6526;54.312;13.092;2023-04-24T09:03:03;1.60;;;1.50;;
12916;SDS011;6526;54.312;13.092;2023-04-24T09:05:30;1.20;;;0.93;;
12916;SDS011;6526;54.312;13.092;2023-04-24T09:07:57;0.63;;;0.63;;
12916;SDS011;6526;54.312;13.092;2023-04-24T09:10:26;0.10;;;0.10;;
12916;SDS011;6526;54.312;13.092;2023-04-24T09:12:55;0.60;;;0.50;;
12916;SDS011;6526;54.312;13.092;2023-04-24T09:15:24;0.23;;;0.23;;
12916;SDS011;6526;54.312;13.092;2023-04-24T09:17:50;1.00;;;1.00;;
12916;SDS011;6526;54.312;13.092;2023-04-24T09:20:16;0.50;;;0.50;;
12916;SDS011;6526;54.312;13.092;2023-04-24T09:22:42;2.50;;;0.83;;
12916;SDS011;6526;54.312;13.092;2023-04-24T09:25:10;0.47;;;0.47;;
12916;SDS011;6526;54.312;13.092;2023-04-24T09:27:40;2.83;;;0.83;;
12916;SDS011;6526;54.312;13.092;2023-04-24T09:30:09;0.30;;;0.30;;
12916;SDS011;6526;54.312;13.092;2023-04-24T09:32:35;2.00;;;1.60;;
12916;SDS011;6526;54.312;13.092;2023-04-24T09:35:19;0.20;;;0.20;;
12916;SDS011;6526;54.312;13.092;2023-04-24T09:37:46;0.20;;;0.20;;
12916;SDS011;6526;54.312;13.092;2023-04-24T09:40:17;0.20;;;0.20;;
12916;SDS011;6526;54.312;13.092;2023-04-24T09:42:45;0.50;;;0.50;;
12916;SDS011;6526;54.312;13.092;2023-04-24T09:45:16;0.30;;;0.30;;
12916;SDS011;6526;54.312;13.092;2023-04-24T09:47:42;0.20;;;0.20;;
12916;SDS011;6526;54.312;13.092;2023-04-24T09:50:13;0.40;;;0.40;;
12916;SDS011;6526;54.312;13.092;2023-04-24T09:52:44;0.53;;;0.53;;
12916;SDS011;6526;54.312;13.092;2023-04-24T09:55:24;0.23;;;0.23;;
12916;SDS011;6526;54.312;13.092;2023-04-24T09:57:53;0.30;;;0.30;;
12916;SDS011;6526;54.312;13.092;2023-04-24T10:00:28;0.30;;;0.30;;
12916;SDS011;6526;54.312;13.092;2023-04-24T10:02:56;0.37;;;0.37;;
12916;SDS011;6526;54.312;13.092;2023-04-24T10:05:24;0.97;;;0.60;;
12916;SDS011;6526;54.312;13.092;2023-04-24T10:08:07;0.70;;;0.70;;
12916;SDS011;6526;54.312;13.092;2023-04-24T10:10:38;0.30;;;0.30;;
12916;SDS011;6526;54.312;13.092;2023-04-24T10:13:07;0.80;;;0.80;;
12916;SDS011;6526;54.312;13.092;2023-04-24T10:15:37;0.50;;;0.50;;
12916;SDS011;6526;54.312;13.092;2023-04-24T10:18:05;1.20;;;1.10;;
12916;SDS011;6526;54.312;13.092;2023-04-24T10:20:31;0.10;;;0.10;;
12916;SDS011;6526;54.312;13.092;2023-04-24T10:23:00;0.30;;;0.30;;
12916;SDS011;6526;54.312;13.092;2023-04-24T10:25:31;0.30;;;0.30;;
12916;SDS011;6526;54.312;13.092;2023-04-24T10:27:59;0.13;;;0.10;;
12916;SDS011;6526;54.312;13.092;2023-04-24T10:30:27;0.40;;;0.40;;
12916;SDS011;6526;54.312;13.092;2023-04-24T10:32:54;0.40;;;0.40;;
12916;SDS011;6526;54.312;13.092;2023-04-24T10:35:21;0.80;;;0.80;;
12916;SDS011;6526;54.312;13.092;2023-04-24T10:37:54;0.43;;;0.43;;
12916;SDS011;6526;54.312;13.092;2023-04-24T10:40:32;0.63;;;0.63;;
12916;SDS011;6526;54.312;13.092;2023-04-24T10:42:59;0.23;;;0.23;;
12916;SDS011;6526;54.312;13.092;2023-04-24T10:45:31;0.30;;;0.30;;
12916;SDS011;6526;54.312;13.092;2023-04-24T10:48:01;0.40;;;0.40;;
12916;SDS011;6526;54.312;13.092;2023-04-24T10:50:51;0.37;;;0.30;;
12916;SDS011;6526;54.312;13.092;2023-04-24T10:53:21;0.30;;;0.30;;
12916;SDS011;6526;54.312;13.092;2023-04-24T10:58:15;0.60;;;0.60;;
12916;SDS011;6526;54.312;13.092;2023-04-24T11:00:55;6.23;;;0.53;;
12916;SDS011;6526;54.312;13.092;2023-04-24T11:03:23;0.40;;;0.40;;
12916;SDS011;6526;54.312;13.092;2023-04-24T11:05:58;1.23;;;0.70;;
12916;SDS011;6526;54.312;13.092;2023-04-24T11:08:29;0.20;;;0.20;;
12916;SDS011;6526;54.312;13.092;2023-04-24T11:14:06;0.40;;;0.40;;
12916;SDS011;6526;54.312;13.092;2023-04-24T11:26:54;0.30;;;0.30;;
12916;SDS011;6526;54.312;13.092;2023-04-24T11:37:27;1.13;;;0.67;;
12916;SDS011;6526;54.312;13.092;2023-04-24T11:40:01;0.60;;;0.60;;
12916;SDS011;6526;54.312;13.092;2023-04-24T11:42:28;0.73;;;0.73;;
12916;SDS011;6526;54.312;13.092;2023-04-24T11:45:28;0.83;;;0.83;;
12916;SDS011;6526;54.312;13.092;2023-04-24T11:47:53;0.20;;;0.20;;
12916;SDS011;6526;54.312;13.092;2023-04-24T11:50:21;0.30;;;0.30;;
12916;SDS011;6526;54.312;13.092;2023-04-24T11:52:49;0.60;;;0.60;;
12916;SDS011;6526;54.312;13.092;2023-04-24T11:57:45;0.57;;;0.57;;
12916;SDS011;6526;54.312;13.092;2023-04-24T12:00:16;0.30;;;0.30;;
12916;SDS011;6526;54.312;13.092;2023-04-24T12:02:47;0.20;;;0.20;;
12916;SDS011;6526;54.312;13.092;2023-04-24T12:05:20;0.20;;;0.20;;
12916;SDS011;6526;54.312;13.092;2023-04-24T12:07:48;0.40;;;0.40;;
12916;SDS011;6526;54.312;13.092;2023-04-24T12:10:14;0.30;;;0.30;;
12916;SDS011;6526;54.312;13.092;2023-04-24T12:12:45;0.33;;;0.33;;
12916;SDS011;6526;54.312;13.092;2023-04-24T12:15:11;0.53;;;0.53;;
12916;SDS011;6526;54.312;13.092;2023-04-24T12:17:40;0.20;;;0.20;;
12916;SDS011;6526;54.312;13.092;2023-04-24T12:20:08;0.53;;;0.53;;
12916;SDS011;6526;54.312;13.092;2023-04-24T12:22:48;0.40;;;0.40;;
12916;SDS011;6526;54.312;13.092;2023-04-24T12:25:15;0.40;;;0.40;;
12916;SDS011;6526;54.312;13.092;2023-04-24T12:27:43;0.60;;;0.60;;
12916;SDS011;6526;54.312;13.092;2023-04-24T12:30:11;1.23;;;0.63;;
12916;SDS011;6526;54.312;13.092;2023-04-24T12:32:46;0.73;;;0.73;;
12916;SDS011;6526;54.312;13.092;2023-04-24T12:35:14;0.30;;;0.30;;
12916;SDS011;6526;54.312;13.092;2023-04-24T12:37:48;0.20;;;0.20;;
12916;SDS011;6526;54.312;13.092;2023-04-24T12:40:14;0.57;;;0.57;;
12916;SDS011;6526;54.312;13.092;2023-04-24T12:42:48;0.77;;;0.60;;
12916;SDS011;6526;54.312;13.092;2023-04-24T12:45:15;0.40;;;0.40;;
12916;SDS011;6526;54.312;13.092;2023-04-24T12:47:43;0.30;;;0.30;;
12916;SDS011;6526;54.312;13.092;2023-04-24T12:50:10;0.63;;;0.63;;
12916;SDS011;6526;54.312;13.092;2023-04-24T12:52:38;1.30;;;0.83;;
12916;SDS011;6526;54.312;13.092;2023-04-24T12:55:05;0.23;;;0.23;;
12916;SDS011;6526;54.312;13.092;2023-04-24T12:57:34;0.40;;;0.40;;
12916;SDS011;6526;54.312;13.092;2023-04-24T13:00:02;0.70;;;0.70;;
12916;SDS011;6526;54.312;13.092;2023-04-24T13:02:29;0.93;;;0.93;;
12916;SDS011;6526;54.312;13.092;2023-04-24T13:04:56;0.30;;;0.30;;
12916;SDS011;6526;54.312;13.092;2023-04-24T13:07:23;0.30;;;0.30;;
12916;SDS011;6526;54.312;13.092;2023-04-24T13:09:49;0.33;;;0.33;;
12916;SDS011;6526;54.312;13.092;2023-04-24T13:12:16;0.30;;;0.30;;
12916;SDS011;6526;54.312;13.092;2023-04-24T13:14:43;0.40;;;0.37;;
12916;SDS011;6526;54.312;13.092;2023-04-24T13:17:09;0.40;;;0.40;;
12916;SDS011;6526;54.312;13.092;2023-04-24T13:19:36;0.50;;;0.40;;
12916;SDS011;6526;54.312;13.092;2023-04-24T13:22:04;0.10;;;0.10;;
12916;SDS011;6526;54.312;13.092;2023-04-24T13:24:30;3.13;;;0.33;;
12916;SDS011;6526;54.312;13.092;2023-04-24T13:26:57;0.20;;;0.20;;
12916;SDS011;6526;54.312;13.092;2023-04-24T13:29:23;0.50;;;0.50;;
12916;SDS011;6526;54.312;13.092;2023-04-24T13:31:53;0.40;;;0.40;;
12916;SDS011;6526;54.312;13.092;2023-04-24T13:34:20;0.10;;;0.10;;
12916;SDS011;6526;54.312;13.092;2023-04-24T13:36:46;0.57;;;0.50;;
12916;SDS011;6526;54.312;13.092;2023-04-24T13:39:13;0.10;;;0.10;;
12916;SDS011;6526;54.312;13.092;2023-04-24T13:41:39;1.00;;;1.00;;
12916;SDS011;6526;54.312;13.092;2023-04-24T13:44:05;0.10;;;0.10;;
12916;SDS011;6526;54.312;13.092;2023-04-24T13:46:31;0.23;;;0.23;;
12916;SDS011;6526;54.312;13.092;2023-04-24T13:48:57;0.47;;;0.47;;
12916;SDS011;6526;54.312;13.092;2023-04-24T13:51:25;0.50;;;0.50;;
12916;SDS011;6526;54.312;13.092;2023-04-24T13:53:54;0.70;;;0.70;;
12916;SDS011;6526;54.312;13.092;2023-04-24T13:56:21;0.30;;;0.30;;
12916;SDS011;6526;54.312;13.092;2023-04-24T13:58:47;0.57;;;0.57;;
12916;SDS011;6526;54.312;13.092;2023-04-24T14:01:14;0.20;;;0.20;;
12916;SDS011;6526;54.312;13.092;2023-04-24T14:03:41;0.40;;;0.40;;
12916;SDS011;6526;54.312;13.092;2023-04-24T14:06:08;0.37;;;0.37;;
12916;SDS011;6526;54.312;13.092;2023-04-24T14:08:34;0.80;;;0.80;;
12916;SDS011;6526;54.312;13.092;2023-04-24T14:11:00;0.90;;;0.90;;
12916;SDS011;6526;54.312;13.092;2023-04-24T14:13:27;0.50;;;0.50;;
12916;SDS011;6526;54.312;13.092;2023-04-24T14:15:53;1.50;;;1.40;;
12916;SDS011;6526;54.312;13.092;2023-04-24T14:18:19;0.30;;;0.30;;
12916;SDS011;6526;54.312;13.092;2023-04-24T14:20:45;0.40;;;0.40;;
12916;SDS011;6526;54.312;13.092;2023-04-24T14:23:11;0.90;;;0.90;;
12916;SDS011;6526;54.312;13.092;2023-04-24T14:25:38;0.50;;;0.50;;
12916;SDS011;6526;54.312;13.092;2023-04-24T14:28:05;1.37;;;1.27;;
12916;SDS011;6526;54.312;13.092;2023-04-24T14:30:32;0.30;;;0.30;;
12916;SDS011;6526;54.312;13.092;2023-04-24T14:32:58;0.30;;;0.27;;
12916;SDS011;6526;54.312;13.092;2023-04-24T14:35:24;0.30;;;0.30;;
12916;SDS011;6526;54.312;13.092;2023-04-24T14:37:50;0.30;;;0.30;;
12916;SDS011;6526;54.312;13.092;2023-04-24T14:40:16;0.10;;;0.10;;
12916;SDS011;6526;54.312;13.092;2023-04-24T14:42:42;0.83;;;0.83;;
12916;SDS011;6526;54.312;13.092;2023-04-24T14:45:08;1.60;;;0.87;;
12916;SDS011;6526;54.312;13.092;2023-04-24T14:47:36;1.83;;;0.27;;
12916;SDS011;6526;54.312;13.092;2023-04-24T14:50:02;0.47;;;0.47;;
12916;SDS011;6526;54.312;13.092;2023-04-24T14:52:28;1.67;;;1.57;;
12916;SDS011;6526;54.312;13.092;2023-04-24T14:54:54;1.40;;;1.00;;
12916;SDS011;6526;54.312;13.092;2023-04-24T14:57:21;1.37;;;1.00;;
12916;SDS011;6526;54.312;13.092;2023-04-24T14:59:47;0.07;;;0.07;;
12916;SDS011;6526;54.312;13.092;2023-04-24T15:02:13;0.10;;;0.10;;
12916;SDS011;6526;54.312;13.092;2023-04-24T15:04:39;0.90;;;0.90;;
12916;SDS011;6526;54.312;13.092;2023-04-24T15:07:05;0.10;;;0.10;;
12916;SDS011;6526;54.312;13.092;2023-04-24T15:09:31;0.70;;;0.70;;
12916;SDS011;6526;54.312;13.092;2023-04-24T15:11:57;1.47;;;1.07;;
12916;SDS011;6526;54.312;13.092;2023-04-24T15:14:23;0.77;;;0.60;;